createdAt,value
2019-05-30T00:00:03.662Z,9.05
2019-05-30T00:00:48.822Z,8.9
2019-05-30T00:01:48.840Z,8.95
2019-05-30T00:02:48.862Z,9.05
2019-05-30T00:03:48.805Z,8.97
2019-05-30T00:04:48.838Z,9.13
2019-05-30T00:05:57.972Z,9.11
2019-05-30T00:06:48.817Z,8.97
2019-05-30T00:07:48.879Z,8.92
2019-05-30T00:08:48.833Z,8.86
2019-05-30T00:09:48.841Z,8.82
2019-05-30T00:10:48.865Z,8.79
2019-05-30T00:11:48.813Z,8.87
2019-05-30T00:12:49.022Z,8.86
2019-05-30T00:13:48.870Z,8.82
2019-05-30T00:14:48.878Z,8.75
2019-05-30T00:15:48.884Z,8.9
2019-05-30T00:16:48.881Z,8.89
2019-05-30T00:17:48.896Z,8.81
2019-05-30T00:18:48.834Z,8.81
2019-05-30T00:19:48.860Z,8.75
2019-05-30T00:20:48.920Z,8.64
2019-05-30T00:21:48.839Z,8.64
2019-05-30T00:22:48.895Z,8.59
2019-05-30T00:23:48.864Z,8.41
2019-05-30T00:24:48.891Z,8.6
2019-05-30T00:25:48.864Z,8.45
2019-05-30T00:26:48.913Z,8.49
2019-05-30T00:27:48.868Z,8.49
2019-05-30T00:28:48.850Z,8.56
2019-05-30T00:29:48.897Z,8.46
2019-05-30T00:30:48.901Z,8.53
2019-05-30T00:31:48.903Z,8.39
2019-05-30T00:32:48.886Z,8.38
2019-05-30T00:33:48.936Z,8.5
2019-05-30T00:34:48.918Z,8.31
2019-05-30T00:36:01.821Z,8.5
2019-05-30T00:36:48.923Z,8.44
2019-05-30T00:37:49.005Z,8.52
2019-05-30T00:38:48.951Z,8.41
2019-05-30T00:39:48.915Z,8.32
2019-05-30T00:40:48.923Z,8.41
2019-05-30T00:41:48.917Z,8.57
2019-05-30T00:42:48.938Z,8.56
2019-05-30T00:43:48.927Z,8.71
2019-05-30T00:44:49.031Z,8.66
2019-05-30T00:45:48.941Z,8.57
2019-05-30T00:46:48.926Z,8.52
2019-05-30T00:47:48.949Z,8.54
2019-05-30T00:48:48.956Z,8.36
2019-05-30T00:49:48.942Z,8.41
2019-05-30T00:50:48.908Z,8.38
2019-05-30T00:51:48.941Z,8.44
2019-05-30T00:52:48.962Z,8.52
2019-05-30T00:53:48.952Z,8.61
2019-05-30T00:54:48.961Z,8.68
2019-05-30T00:55:48.962Z,8.59
2019-05-30T00:56:48.968Z,8.61
2019-05-30T00:57:48.937Z,8.66
2019-05-30T00:58:49.010Z,8.69
2019-05-30T00:59:48.947Z,8.5
2019-05-30T01:00:49.596Z,8.49
2019-05-30T01:01:48.927Z,8.57
2019-05-30T01:02:49.162Z,8.56
2019-05-30T01:03:48.955Z,8.63
2019-05-30T01:04:49.084Z,8.69
2019-05-30T01:05:49.035Z,8.52
2019-05-30T01:06:49.006Z,8.69
2019-05-30T01:07:48.975Z,8.74
2019-05-30T01:08:49.002Z,8.75
2019-05-30T01:09:48.967Z,8.82
2019-05-30T01:10:48.957Z,8.79
2019-05-30T01:11:48.980Z,8.75
2019-05-30T01:12:49.026Z,8.79
2019-05-30T01:13:48.976Z,8.82
2019-05-30T01:14:48.983Z,8.78
2019-05-30T01:15:49.033Z,8.79
2019-05-30T01:16:49.033Z,8.71
2019-05-30T01:17:48.960Z,8.63
2019-05-30T01:18:49.274Z,8.52
2019-05-30T01:19:48.976Z,8.35
2019-05-30T01:20:48.973Z,8.31
2019-05-30T01:21:48.992Z,8.31
2019-05-30T01:22:49.042Z,8.39
2019-05-30T01:23:49.016Z,8.36
2019-05-30T01:24:48.966Z,8.53
2019-05-30T01:25:49.008Z,8.6
2019-05-30T01:26:49.060Z,8.53
2019-05-30T01:27:49.025Z,8.46
2019-05-30T01:28:48.967Z,8.54
2019-05-30T01:29:49.016Z,8.5
2019-05-30T01:31:11.626Z,8.31
2019-05-30T01:31:49.015Z,8.27
2019-05-30T01:32:48.957Z,8.18
2019-05-30T01:33:48.942Z,8.11
2019-05-30T01:34:49.014Z,8.17
2019-05-30T01:35:49.011Z,8.09
2019-05-30T01:36:49.002Z,8.03
2019-05-30T01:37:48.974Z,8.11
2019-05-30T01:38:48.993Z,8.03
2019-05-30T01:39:48.960Z,8.13
2019-05-30T01:40:49.002Z,8.09
2019-05-30T01:41:49.035Z,8.2
2019-05-30T01:42:48.975Z,8.18
2019-05-30T01:43:48.979Z,8.21
2019-05-30T01:44:48.973Z,8.18
2019-05-30T01:45:49.020Z,8.2
2019-05-30T01:46:49.008Z,8.26
2019-05-30T01:47:49.016Z,8.16
2019-05-30T01:48:49.045Z,7.98
2019-05-30T01:49:48.986Z,7.9
2019-05-30T01:50:49.317Z,7.78
2019-05-30T01:51:48.995Z,7.95
2019-05-30T01:52:48.968Z,7.93
2019-05-30T01:53:48.983Z,7.96
2019-05-30T01:54:48.958Z,8.09
2019-05-30T01:55:51.501Z,7.93
2019-05-30T01:56:49.353Z,7.88
2019-05-30T01:57:48.992Z,7.91
2019-05-30T01:58:48.982Z,7.96
2019-05-30T02:00:53.809Z,8.13
2019-05-30T02:01:30.165Z,8.11
2019-05-30T02:02:22.897Z,8.08
2019-05-30T02:03:22.904Z,8.11
2019-05-30T02:04:22.863Z,8.13
2019-05-30T02:05:22.855Z,8.17
2019-05-30T02:06:22.891Z,8.23
2019-05-30T02:07:22.878Z,8.16
2019-05-30T02:08:22.888Z,8.14
2019-05-30T02:09:22.992Z,8.16
2019-05-30T02:10:23.059Z,8.24
2019-05-30T02:11:22.950Z,8.2
2019-05-30T02:12:22.909Z,8.16
2019-05-30T02:13:23.918Z,8.2
2019-05-30T02:14:22.859Z,8.31
2019-05-30T02:15:22.874Z,8.2
2019-05-30T02:16:22.900Z,8.21
2019-05-30T02:17:22.880Z,8.14
2019-05-30T02:18:22.867Z,8.2
2019-05-30T02:19:22.895Z,8.2
2019-05-30T02:20:22.860Z,8.13
2019-05-30T02:21:22.885Z,8.16
2019-05-30T02:22:22.873Z,8.21
2019-05-30T02:23:22.900Z,8.14
2019-05-30T02:24:22.904Z,8.09
2019-05-30T02:25:22.875Z,8.17
2019-05-30T02:26:22.858Z,8.11
2019-05-30T02:27:22.929Z,8.18
2019-05-30T02:28:22.934Z,8.11
2019-05-30T02:29:22.984Z,8.09
2019-05-30T02:30:22.925Z,8.05
2019-05-30T02:31:42.968Z,7.99
2019-05-30T02:32:22.897Z,8.02
2019-05-30T02:33:22.911Z,8.09
2019-05-30T02:34:22.958Z,8.13
2019-05-30T02:35:22.942Z,8.01
2019-05-30T02:36:22.953Z,7.98
2019-05-30T02:37:22.894Z,7.85
2019-05-30T02:38:22.931Z,7.96
2019-05-30T02:39:22.950Z,8.03
2019-05-30T02:40:22.998Z,8.02
2019-05-30T02:41:22.972Z,8.08
2019-05-30T02:42:22.934Z,7.99
2019-05-30T02:43:22.944Z,8.01
2019-05-30T02:44:22.903Z,7.9
2019-05-30T02:45:22.947Z,7.96
2019-05-30T02:46:22.934Z,7.99
2019-05-30T02:47:27.488Z,7.87
2019-05-30T02:48:22.967Z,7.95
2019-05-30T02:49:22.926Z,7.88
2019-05-30T02:50:23.307Z,7.95
2019-05-30T02:51:22.970Z,7.9
2019-05-30T02:52:22.943Z,7.83
2019-05-30T02:53:22.979Z,7.87
2019-05-30T02:54:23.010Z,7.95
2019-05-30T02:55:22.976Z,7.9
2019-05-30T02:56:23.003Z,7.8
2019-05-30T02:57:22.980Z,7.85
2019-05-30T02:58:22.997Z,7.91
2019-05-30T02:59:22.943Z,7.88
2019-05-30T03:00:23.523Z,7.83
2019-05-30T03:01:22.996Z,7.88
2019-05-30T03:02:23.327Z,7.95
2019-05-30T03:03:22.966Z,7.88
2019-05-30T03:04:22.949Z,7.84
2019-05-30T03:05:23.081Z,7.78
2019-05-30T03:06:22.987Z,7.84
2019-05-30T03:07:22.942Z,7.88
2019-05-30T03:08:22.918Z,7.9
2019-05-30T03:09:22.934Z,7.8
2019-05-30T03:10:22.973Z,7.91
2019-05-30T03:11:23.011Z,7.85
2019-05-30T03:12:22.996Z,7.9
2019-05-30T03:13:23.270Z,7.74
2019-05-30T03:14:25.216Z,7.64
2019-05-30T03:15:22.982Z,7.67
2019-05-30T03:16:23.000Z,7.69
2019-05-30T03:17:22.968Z,7.72
2019-05-30T03:18:22.963Z,7.72
2019-05-30T03:19:22.972Z,7.8
2019-05-30T03:20:28.270Z,7.83
2019-05-30T03:21:22.935Z,7.84
2019-05-30T03:22:22.967Z,7.83
2019-05-30T03:23:23.020Z,7.87
2019-05-30T03:24:22.976Z,7.9
2019-05-30T03:25:23.108Z,7.88
2019-05-30T03:26:23.293Z,7.83
2019-05-30T03:27:22.980Z,7.81
2019-05-30T03:28:22.998Z,7.91
2019-05-30T03:29:22.969Z,7.61
2019-05-30T03:30:32.845Z,7.43
2019-05-30T03:31:33.938Z,7.47
2019-05-30T03:33:37.231Z,7.28
2019-05-30T03:33:51.419Z,7.11
2019-05-30T03:34:51.445Z,7.23
2019-05-30T03:35:51.475Z,7.15
2019-05-30T03:36:51.433Z,7.26
2019-05-30T03:37:52.000Z,7.21
2019-05-30T03:38:51.453Z,7.13
2019-05-30T03:39:51.722Z,7.4
2019-05-30T03:40:51.401Z,7.4
2019-05-30T03:41:51.382Z,7.43
2019-05-30T03:42:51.393Z,7.44
2019-05-30T03:43:51.446Z,7.53
2019-05-30T03:44:51.486Z,7.46
2019-05-30T03:45:51.411Z,7.36
2019-05-30T03:46:51.402Z,7.37
2019-05-30T03:47:51.420Z,7.18
2019-05-30T03:48:51.418Z,7.23
2019-05-30T03:49:51.426Z,7.47
2019-05-30T03:50:51.447Z,7.47
2019-05-30T03:51:51.457Z,7.53
2019-05-30T03:52:51.426Z,7.59
2019-05-30T03:53:51.442Z,7.61
2019-05-30T03:54:51.426Z,7.66
2019-05-30T03:55:51.404Z,7.66
2019-05-30T03:56:51.401Z,7.81
2019-05-30T03:57:51.490Z,7.69
2019-05-30T03:58:51.410Z,7.85
2019-05-30T03:59:51.468Z,7.87
2019-05-30T04:00:56.116Z,7.84
2019-05-30T04:01:51.700Z,7.91
2019-05-30T04:03:02.642Z,7.77
2019-05-30T04:03:51.491Z,7.74
2019-05-30T04:04:51.431Z,7.7
2019-05-30T04:05:51.486Z,7.66
2019-05-30T04:06:51.436Z,7.77
2019-05-30T04:07:51.431Z,7.7
2019-05-30T04:08:51.422Z,7.74
2019-05-30T04:09:51.469Z,7.67
2019-05-30T04:10:51.466Z,7.77
2019-05-30T04:11:51.437Z,7.7
2019-05-30T04:12:51.465Z,7.61
2019-05-30T04:13:51.457Z,7.69
2019-05-30T04:14:51.448Z,7.77
2019-05-30T04:15:51.447Z,7.67
2019-05-30T04:16:51.544Z,7.64
2019-05-30T04:17:51.417Z,7.64
2019-05-30T04:18:51.467Z,7.72
2019-05-30T04:19:51.490Z,7.66
2019-05-30T04:20:51.462Z,7.67
2019-05-30T04:21:51.507Z,7.66
2019-05-30T04:22:51.495Z,7.78
2019-05-30T04:23:51.477Z,7.74
2019-05-30T04:24:51.459Z,7.75
2019-05-30T04:25:51.489Z,7.78
2019-05-30T04:26:51.456Z,7.69
2019-05-30T04:27:51.465Z,7.85
2019-05-30T04:28:51.511Z,7.78
2019-05-30T04:29:51.498Z,7.81
2019-05-30T04:30:51.769Z,7.91
2019-05-30T04:31:51.450Z,7.96
2019-05-30T04:32:51.463Z,7.84
2019-05-30T04:33:51.508Z,7.88
2019-05-30T04:34:51.468Z,7.95
2019-05-30T04:35:51.453Z,8.01
2019-05-30T04:36:56.203Z,7.99
2019-05-30T04:37:51.481Z,7.91
2019-05-30T04:38:51.567Z,8.03
2019-05-30T04:39:51.471Z,8.02
2019-05-30T04:40:51.462Z,8.02
2019-05-30T04:41:56.912Z,8.11
2019-05-30T04:42:51.493Z,8.03
2019-05-30T04:43:51.525Z,8.09
2019-05-30T04:44:51.513Z,8.09
2019-05-30T04:45:51.732Z,8.09
2019-05-30T04:46:51.501Z,8.2
2019-05-30T04:47:51.463Z,8.18
2019-05-30T04:48:51.618Z,8.16
2019-05-30T04:49:51.524Z,8.26
2019-05-30T04:50:51.612Z,8.27
2019-05-30T04:51:51.511Z,8.23
2019-05-30T04:52:51.538Z,8.18
2019-05-30T04:53:51.740Z,8.24
2019-05-30T04:54:51.473Z,8.28
2019-05-30T04:55:51.515Z,8.35
2019-05-30T04:56:51.596Z,8.39
2019-05-30T04:57:51.506Z,8.35
2019-05-30T04:58:51.490Z,8.34
2019-05-30T04:59:51.516Z,8.46
2019-05-30T05:00:51.493Z,8.53
2019-05-30T05:01:51.708Z,8.39
2019-05-30T05:02:51.505Z,8.54
2019-05-30T05:03:52.310Z,8.61
2019-05-30T05:04:53.325Z,8.61
2019-05-30T05:05:51.576Z,8.72
2019-05-30T05:06:51.532Z,8.79
2019-05-30T05:07:51.506Z,8.84
2019-05-30T05:08:51.508Z,8.86
2019-05-30T05:09:51.492Z,8.93
2019-05-30T05:10:51.508Z,9.12
2019-05-30T05:11:51.627Z,9
2019-05-30T05:12:51.491Z,9.05
2019-05-30T05:13:51.752Z,9.02
2019-05-30T05:14:51.592Z,9.09
2019-05-30T05:15:51.532Z,9.12
2019-05-30T05:16:51.639Z,9.21
2019-05-30T05:17:51.522Z,9.24
2019-05-30T05:18:51.510Z,9.26
2019-05-30T05:19:51.491Z,9.3
2019-05-30T05:20:51.550Z,9.44
2019-05-30T05:21:51.536Z,9.55
2019-05-30T05:22:51.621Z,9.49
2019-05-30T05:23:51.723Z,9.58
2019-05-30T05:24:51.494Z,9.64
2019-05-30T05:26:05.610Z,9.56
2019-05-30T05:26:51.536Z,9.69
2019-05-30T05:27:51.527Z,9.74
2019-05-30T05:28:51.493Z,9.73
2019-05-30T05:29:51.543Z,9.87
2019-05-30T05:30:51.506Z,9.8
2019-05-30T05:31:51.725Z,9.94
2019-05-30T05:32:51.729Z,9.85
2019-05-30T05:34:02.016Z,9.95
2019-05-30T05:34:54.764Z,9.95
2019-05-30T05:35:51.590Z,10.1
2019-05-30T05:36:51.530Z,10.13
2019-05-30T05:42:08.706Z,10.17
2019-05-30T05:42:20.706Z,10.36
2019-05-30T05:43:22.310Z,10.45
2019-05-30T05:44:20.883Z,10.57
2019-05-30T05:45:20.854Z,10.55
2019-05-30T05:46:21.058Z,10.53
2019-05-30T05:47:21.073Z,10.67
2019-05-30T05:48:20.933Z,10.59
2019-05-30T05:49:20.959Z,10.65
2019-05-30T05:50:20.964Z,10.77
2019-05-30T05:51:20.744Z,10.82
2019-05-30T05:52:20.693Z,10.82
2019-05-30T05:53:20.832Z,10.84
2019-05-30T05:54:20.809Z,10.95
2019-05-30T05:55:20.851Z,10.9
2019-05-30T05:56:20.747Z,10.94
2019-05-30T05:57:20.771Z,11.22
2019-05-30T05:58:20.772Z,11.26
2019-05-30T05:59:20.873Z,11.37
2019-05-30T06:00:21.130Z,11.38
2019-05-30T06:01:21.376Z,11.43
2019-05-30T06:02:21.076Z,11.44
2019-05-30T06:03:24.135Z,11.52
2019-05-30T06:04:21.007Z,11.4
2019-05-30T06:05:20.672Z,11.4
2019-05-30T06:06:19.906Z,11.83
2019-05-30T06:07:20.827Z,12.05
2019-05-30T06:08:21.120Z,12.12
2019-05-30T06:10:21.374Z,12.28
2019-05-30T06:11:21.173Z,12.39
2019-05-30T06:12:20.268Z,12.4
2019-05-30T06:13:20.720Z,12.47
2019-05-30T06:14:21.762Z,12.61
2019-05-30T06:15:20.768Z,12.7
2019-05-30T06:16:20.581Z,12.75
2019-05-30T06:17:20.927Z,12.91
2019-05-30T06:18:22.138Z,12.93
2019-05-30T06:19:21.071Z,12.99
2019-05-30T06:20:21.135Z,13.01
2019-05-30T06:21:19.979Z,13.08
2019-05-30T06:22:20.095Z,13.12
2019-05-30T06:23:20.010Z,13.05
2019-05-30T06:24:21.469Z,13.05
2019-05-30T06:25:24.588Z,12.93
2019-05-30T06:26:20.421Z,13.21
2019-05-30T06:27:20.417Z,13.47
2019-05-30T06:28:20.649Z,13.7
2019-05-30T06:29:20.565Z,13.8
2019-05-30T06:30:20.889Z,14.16
2019-05-30T06:31:21.010Z,14.3
2019-05-30T06:32:22.506Z,14.66
2019-05-30T06:33:21.137Z,14.96
2019-05-30T06:34:42.094Z,15.33
2019-05-30T06:35:21.366Z,14.96
2019-05-30T06:36:20.851Z,15.39
2019-05-30T06:37:20.843Z,15.66
2019-05-30T06:38:19.756Z,16.39
2019-05-30T06:39:19.762Z,16.43
2019-05-30T06:40:19.814Z,16.58
2019-05-30T06:41:19.765Z,16.68
2019-05-30T06:42:20.065Z,17.05
2019-05-30T06:43:19.954Z,17.16
2019-05-30T06:44:19.894Z,17.22
2019-05-30T06:45:21.854Z,17.44
2019-05-30T06:46:20.091Z,17.53
2019-05-30T06:47:20.140Z,17.65
2019-05-30T06:48:20.611Z,17.78
2019-05-30T06:49:20.572Z,17.9
2019-05-30T06:50:20.576Z,17.65
2019-05-30T06:51:20.941Z,17.93
2019-05-30T06:52:20.857Z,17.94
2019-05-30T06:53:20.905Z,18.03
2019-05-30T06:54:21.310Z,18.08
2019-05-30T06:55:20.985Z,18.28
2019-05-30T06:56:21.108Z,18.24
2019-05-30T06:57:21.092Z,18.57
2019-05-30T06:58:35.196Z,18.55
2019-05-30T06:59:19.885Z,18.6
2019-05-30T07:00:19.821Z,18.68
2019-05-30T07:01:19.893Z,18.83
2019-05-30T07:02:19.871Z,18.85
2019-05-30T07:03:20.153Z,18.98
2019-05-30T07:04:22.520Z,19.24
2019-05-30T07:05:23.104Z,18.88
2019-05-30T07:06:21.711Z,18.31
2019-05-30T07:07:20.395Z,18.64
2019-05-30T07:08:19.961Z,19.26
2019-05-30T07:09:19.949Z,18.66
2019-05-30T07:10:19.907Z,18.7
2019-05-30T07:11:19.832Z,19.26
2019-05-30T07:12:19.858Z,19.45
2019-05-30T07:13:19.835Z,19.42
2019-05-30T07:14:19.819Z,19.59
2019-05-30T07:15:19.862Z,19.56
2019-05-30T07:16:19.936Z,19.39
2019-05-30T07:17:19.852Z,19.77
2019-05-30T07:18:19.816Z,19.84
2019-05-30T07:19:19.905Z,20.12
2019-05-30T07:20:19.811Z,20.15
2019-05-30T07:21:19.875Z,20.48
2019-05-30T07:22:19.876Z,20.46
2019-05-30T07:23:20.179Z,20.5
2019-05-30T07:24:19.859Z,20.64
2019-05-30T07:25:19.865Z,20.74
2019-05-30T07:26:20.006Z,20.82
2019-05-30T07:27:19.955Z,20.83
2019-05-30T07:28:19.862Z,21.04
2019-05-30T07:29:19.938Z,21.15
2019-05-30T07:30:19.885Z,20.95
2019-05-30T07:31:19.892Z,20.75
2019-05-30T07:32:19.888Z,21.23
2019-05-30T07:33:19.854Z,21.22
2019-05-30T07:34:19.869Z,21.29
2019-05-30T07:35:19.869Z,21.4
2019-05-30T07:36:19.861Z,21.11
2019-05-30T07:37:19.944Z,21.17
2019-05-30T07:38:20.850Z,20.74
2019-05-30T07:40:24.651Z,20.68
2019-05-30T07:41:19.971Z,20.12
2019-05-30T07:42:19.875Z,20.39
2019-05-30T07:43:19.863Z,20.86
2019-05-30T07:44:19.976Z,20.75
2019-05-30T07:45:20.677Z,20.96
2019-05-30T07:46:19.893Z,21.04
2019-05-30T07:47:19.864Z,21.22
2019-05-30T07:48:19.888Z,21.19
2019-05-30T07:49:19.872Z,20.75
2019-05-30T07:50:19.878Z,20.9
2019-05-30T07:51:19.939Z,20.92
2019-05-30T07:52:19.894Z,21
2019-05-30T07:53:20.594Z,20.9
2019-05-30T07:54:19.906Z,20.5
2019-05-30T07:55:19.876Z,20.98
2019-05-30T07:56:19.941Z,21.2
2019-05-30T07:57:19.906Z,21.51
2019-05-30T07:58:19.932Z,21.59
2019-05-30T07:59:20.265Z,21.56
2019-05-30T08:00:19.930Z,21.38
2019-05-30T08:01:19.918Z,20.96
2019-05-30T08:02:19.897Z,20.74
2019-05-30T08:03:19.891Z,21
2019-05-30T08:04:19.909Z,20.78
2019-05-30T08:05:30.588Z,20.83
2019-05-30T08:06:19.927Z,20.9
2019-05-30T08:07:19.977Z,21.08
2019-05-30T08:08:19.939Z,21.28
2019-05-30T08:09:20.078Z,21.14
2019-05-30T08:10:20.007Z,21.23
2019-05-30T08:11:19.955Z,21.07
2019-05-30T08:12:19.941Z,21.11
2019-05-30T08:13:19.930Z,20.11
2019-05-30T08:14:19.953Z,20.04
2019-05-30T08:15:19.958Z,20.77
2019-05-30T08:16:20.270Z,20.82
2019-05-30T08:17:19.976Z,20.78
2019-05-30T08:18:19.933Z,21.1
2019-05-30T08:19:19.950Z,20.8
2019-05-30T08:20:19.954Z,20.95
2019-05-30T08:21:19.986Z,21.26
2019-05-30T08:22:19.960Z,20.63
2019-05-30T08:23:19.947Z,21.11
2019-05-30T08:24:20.124Z,21.25
2019-05-30T08:25:20.066Z,21.43
2019-05-30T08:26:23.581Z,21.59
2019-05-30T08:27:20.191Z,21.35
2019-05-30T08:28:20.046Z,21.77
2019-05-30T08:29:19.949Z,21.56
2019-05-30T08:30:19.962Z,21.89
2019-05-30T08:31:20.000Z,21.97
2019-05-30T08:32:20.949Z,22.01
2019-05-30T08:33:21.580Z,22.07
2019-05-30T08:34:19.993Z,22.28
2019-05-30T08:35:20.060Z,22.41
2019-05-30T08:36:20.037Z,22.34
2019-05-30T08:37:19.993Z,22.33
2019-05-30T08:38:20.075Z,22.26
2019-05-30T08:39:20.060Z,21.56
2019-05-30T08:40:19.954Z,21.75
2019-05-30T08:41:20.020Z,21.92
2019-05-30T08:42:19.994Z,22.16
2019-05-30T08:43:19.975Z,21.47
2019-05-30T08:44:29.964Z,21.35
2019-05-30T08:45:20.009Z,21.4
2019-05-30T08:46:19.969Z,21.37
2019-05-30T08:47:19.980Z,21.5
2019-05-30T08:50:27.766Z,20.96
2019-05-30T08:50:45.110Z,21.26
2019-05-30T08:51:40.935Z,21.58
2019-05-30T08:52:41.324Z,21.81
2019-05-30T08:53:41.079Z,22.06
2019-05-30T08:54:41.147Z,22.28
2019-05-30T08:55:41.177Z,22.63
2019-05-30T08:56:41.152Z,22.65
2019-05-30T08:57:41.355Z,22.67
2019-05-30T08:58:41.336Z,22.98
2019-05-30T08:59:44.555Z,22.83
2019-05-30T09:00:40.043Z,23.1
2019-05-30T09:01:43.874Z,23.36
2019-05-30T09:02:41.459Z,23.04
2019-05-30T09:03:42.331Z,23.02
2019-05-30T09:04:41.965Z,23.08
2019-05-30T09:05:58.972Z,23.23
2019-05-30T09:06:41.999Z,22.74
2019-05-30T09:07:43.336Z,22.33
2019-05-30T09:08:42.136Z,22.77
2019-05-30T09:09:49.512Z,22.53
2019-05-30T09:10:44.350Z,22.73
2019-05-30T09:11:44.307Z,22.15
2019-05-30T09:12:49.049Z,22.7
2019-05-30T09:13:42.622Z,22.74
2019-05-30T09:14:42.823Z,22.91
2019-05-30T09:15:42.878Z,23.02
2019-05-30T09:16:40.442Z,23.32
2019-05-30T09:17:49.446Z,22.65
2019-05-30T09:18:43.160Z,22.74
2019-05-30T09:19:43.170Z,22.26
2019-05-30T09:20:43.642Z,22.49
2019-05-30T09:21:43.133Z,22.89
2019-05-30T09:22:43.527Z,22.89
2019-05-30T09:23:43.792Z,22.56
2019-05-30T09:24:42.323Z,22.23
2019-05-30T09:25:42.242Z,22.74
2019-05-30T09:26:46.738Z,22.78
2019-05-30T09:27:42.843Z,22.93
2019-05-30T09:28:42.202Z,22.89
2019-05-30T09:29:42.843Z,22.1
2019-05-30T09:30:43.171Z,22.7
2019-05-30T09:31:42.819Z,23.14
2019-05-30T09:32:43.173Z,22.92
2019-05-30T09:33:41.035Z,23.13
2019-05-30T09:34:43.256Z,23.23
2019-05-30T09:35:42.976Z,23.23
2019-05-30T09:36:42.726Z,23.51
2019-05-30T09:37:43.965Z,23.25
2019-05-30T09:38:40.490Z,22.58
2019-05-30T09:39:50.009Z,23.39
2019-05-30T09:40:40.772Z,23.74
2019-05-30T09:41:40.773Z,23.25
2019-05-30T09:42:41.139Z,23.54
2019-05-30T09:43:41.448Z,23.66
2019-05-30T09:44:40.913Z,23.92
2019-05-30T09:45:41.115Z,23.06
2019-05-30T09:46:41.292Z,23.16
2019-05-30T09:47:41.462Z,22.93
2019-05-30T09:48:40.117Z,22.98
2019-05-30T09:49:40.138Z,23.01
2019-05-30T09:50:40.940Z,23.25
2019-05-30T09:51:40.549Z,23.39
2019-05-30T09:52:41.582Z,23.02
2019-05-30T09:53:41.051Z,23.28
2019-05-30T09:54:41.152Z,23.47
2019-05-30T09:55:41.307Z,23.74
2019-05-30T09:56:40.096Z,23.25
2019-05-30T09:57:41.288Z,23.32
2019-05-30T09:58:42.204Z,23.44
2019-05-30T09:59:40.122Z,23.64
2019-05-30T10:00:40.124Z,23.45
2019-05-30T10:01:40.102Z,23.59
2019-05-30T10:02:40.071Z,23.77
2019-05-30T10:03:40.075Z,23.74
2019-05-30T10:04:40.175Z,23.52
2019-05-30T10:05:40.116Z,23.81
2019-05-30T10:06:40.127Z,23.73
2019-05-30T10:07:40.193Z,23.49
2019-05-30T10:08:40.142Z,23.32
2019-05-30T10:09:51.531Z,23.1
2019-05-30T10:10:40.149Z,22.77
2019-05-30T10:11:40.130Z,23.01
2019-05-30T10:12:40.227Z,22.91
2019-05-30T10:13:40.124Z,22.89
2019-05-30T10:14:40.110Z,22.86
2019-05-30T10:15:40.293Z,23.28
2019-05-30T10:16:40.166Z,23.59
2019-05-30T10:17:40.138Z,23.63
2019-05-30T10:18:40.103Z,23.67
2019-05-30T10:19:40.121Z,23.71
2019-05-30T10:20:40.140Z,23.82
2019-05-30T10:21:40.135Z,23.42
2019-05-30T10:22:40.102Z,23.06
2019-05-30T10:23:40.112Z,22.74
2019-05-30T10:24:42.958Z,23.08
2019-05-30T10:25:40.140Z,23.26
2019-05-30T10:26:40.155Z,22.74
2019-05-30T10:27:40.154Z,23.07
2019-05-30T10:28:40.149Z,23.34
2019-05-30T10:29:40.151Z,23.39
2019-05-30T10:30:40.165Z,23.4
2019-05-30T10:31:40.186Z,23.08
2019-05-30T10:32:40.136Z,23.47
2019-05-30T10:33:40.120Z,23.07
2019-05-30T10:34:40.140Z,23.11
2019-05-30T10:35:40.166Z,23.84
2019-05-30T10:36:51.723Z,23.96
2019-05-30T10:37:40.147Z,23.73
2019-05-30T10:38:40.184Z,23.81
2019-05-30T10:46:15.637Z,23.71
2019-05-30T10:46:26.654Z,23.55
2019-05-30T10:47:26.664Z,23.71
2019-05-30T10:48:26.829Z,23.99
2019-05-30T10:49:39.983Z,23.96
2019-05-30T10:50:26.654Z,24.13
2019-05-30T10:51:26.682Z,24.29
2019-05-30T10:52:26.673Z,24.1
2019-05-30T10:53:26.662Z,24.18
2019-05-30T10:54:26.641Z,24.48
2019-05-30T10:55:26.694Z,24.22
2019-05-30T10:56:26.693Z,24.06
2019-05-30T10:57:26.826Z,24.04
2019-05-30T10:58:27.117Z,23.84
2019-05-30T10:59:26.717Z,24.06
2019-05-30T11:00:26.741Z,24.04
2019-05-30T11:01:26.648Z,23.84
2019-05-30T11:02:26.693Z,23.74
2019-05-30T11:03:26.662Z,23.94
2019-05-30T11:04:26.695Z,24.09
2019-05-30T11:05:26.741Z,23.77
2019-05-30T11:06:26.662Z,24.09
2019-05-30T11:07:26.726Z,23.85
2019-05-30T11:08:26.698Z,24
2019-05-30T11:09:26.697Z,24.06
2019-05-30T11:10:26.700Z,23.94
2019-05-30T11:11:26.755Z,23.67
2019-05-30T11:12:26.643Z,23.49
2019-05-30T11:13:26.700Z,23.79
2019-05-30T11:14:26.700Z,23.92
2019-05-30T11:15:26.682Z,23.73
2019-05-30T11:16:26.699Z,23.94
2019-05-30T11:17:27.107Z,23.95
2019-05-30T11:18:26.705Z,24.26
2019-05-30T11:19:26.718Z,24.5
2019-05-30T11:20:26.821Z,24.21
2019-05-30T11:21:26.757Z,24.21
2019-05-30T11:22:26.970Z,24.31
2019-05-30T11:23:26.723Z,24.32
2019-05-30T11:24:26.702Z,24.26
2019-05-30T11:25:26.731Z,24.32
2019-05-30T11:26:26.774Z,24.14
2019-05-30T11:27:27.258Z,24.44
2019-05-30T11:28:26.727Z,24.58
2019-05-30T11:29:26.696Z,24.19
2019-05-30T11:30:26.806Z,24.24
2019-05-30T11:31:26.718Z,24.29
2019-05-30T11:32:26.714Z,23.76
2019-05-30T11:33:26.721Z,23.85
2019-05-30T11:34:26.734Z,23.88
2019-05-30T11:35:26.734Z,24.26
2019-05-30T11:36:26.762Z,24.56
2019-05-30T11:37:26.750Z,24.22
2019-05-30T11:38:26.765Z,23.99
2019-05-30T11:39:26.755Z,23.94
2019-05-30T11:40:26.765Z,24.14
2019-05-30T11:41:26.774Z,24.71
2019-05-30T11:46:44.127Z,24.59
2019-05-30T11:46:56.066Z,24.63
2019-05-30T11:47:57.928Z,24.86
2019-05-30T11:48:56.320Z,25.11
2019-05-30T11:49:57.534Z,25.16
2019-05-30T11:50:56.388Z,25.03
2019-05-30T11:51:57.867Z,25.07
2019-05-30T11:52:56.436Z,24.4
2019-05-30T11:53:56.389Z,24.58
2019-05-30T11:54:56.682Z,24.53
2019-05-30T11:55:57.939Z,24.34
2019-05-30T11:56:56.529Z,24.71
2019-05-30T11:57:58.313Z,24.69
2019-05-30T11:58:55.974Z,24.62
2019-05-30T11:59:56.188Z,24.74
2019-05-30T12:00:58.304Z,24.81
2019-05-30T12:01:58.213Z,24.77
2019-05-30T12:02:56.815Z,24.81
2019-05-30T12:03:57.007Z,24.71
2019-05-30T12:04:56.552Z,24.61
2019-05-30T12:05:56.567Z,24.53
2019-05-30T12:06:57.355Z,24.58
2019-05-30T12:07:58.824Z,24.44
2019-05-30T12:08:56.907Z,24.24
2019-05-30T12:09:56.862Z,24.61
2019-05-30T12:10:57.595Z,24.46
2019-05-30T12:11:57.392Z,24.38
2019-05-30T12:12:59.067Z,24.4
2019-05-30T12:13:57.838Z,24.71
2019-05-30T12:14:57.832Z,24.26
2019-05-30T12:20:16.017Z,24.37
2019-05-30T12:20:27.399Z,24.47
2019-05-30T12:21:29.794Z,24.86
2019-05-30T12:22:27.015Z,25.09
2019-05-30T12:23:27.004Z,25.09
2019-05-30T12:24:26.962Z,25.07
2019-05-30T12:25:27.014Z,24.93
2019-05-30T12:29:56.665Z,24.89
2019-05-30T12:31:08.988Z,24.92
2019-05-30T12:32:01.732Z,25.14
2019-05-30T12:32:56.770Z,24.99
2019-05-30T12:33:56.923Z,25.03
2019-05-30T12:34:56.345Z,24.81
2019-05-30T12:35:56.412Z,24.24
2019-05-30T12:36:56.382Z,25.01
2019-05-30T12:38:08.951Z,24.81
2019-05-30T12:38:56.342Z,25.22
2019-05-30T12:39:56.521Z,25.33
2019-05-30T12:40:56.402Z,25.11
2019-05-30T12:41:56.545Z,25
2019-05-30T12:43:03.495Z,25.01
2019-05-30T12:43:56.686Z,24.88
2019-05-30T12:44:55.567Z,25.06
2019-05-30T12:45:55.512Z,25.15
2019-05-30T12:46:57.032Z,25.06
2019-05-30T12:47:55.685Z,24.78
2019-05-30T12:48:57.203Z,24.61
2019-05-30T12:49:57.102Z,24.69
2019-05-30T12:50:55.796Z,24.51
2019-05-30T12:51:56.701Z,24.48
2019-05-30T12:52:56.089Z,24.38
2019-05-30T12:53:56.324Z,24.07
2019-05-30T12:54:56.377Z,24.09
2019-05-30T12:55:56.363Z,24.32
2019-05-30T12:56:56.550Z,24.48
2019-05-30T12:57:56.500Z,24
2019-05-30T12:58:56.528Z,23.96
2019-05-30T12:59:56.687Z,23.95
2019-05-30T13:00:56.344Z,23.85
2019-05-30T13:01:56.585Z,23.89
2019-05-30T13:02:56.436Z,24.18
2019-05-30T13:03:56.866Z,24.29
2019-05-30T13:04:55.473Z,24.36
2019-05-30T13:05:55.487Z,24.1
2019-05-30T13:07:01.233Z,24.21
2019-05-30T13:08:11.653Z,23.73
2019-05-30T13:08:55.508Z,24.07
2019-05-30T13:09:55.726Z,24
2019-05-30T13:10:55.625Z,24.1
2019-05-30T13:11:56.834Z,24.41
2019-05-30T13:12:55.621Z,24.65
2019-05-30T13:13:56.551Z,24.36
2019-05-30T13:14:55.581Z,24.61
2019-05-30T13:15:56.491Z,24.47
2019-05-30T13:16:55.656Z,24.58
2019-05-30T13:17:57.249Z,24.68
2019-05-30T13:18:55.888Z,24.37
2019-05-30T13:19:55.500Z,24.4
2019-05-30T13:20:55.909Z,24.68
2019-05-30T13:21:59.783Z,24.78
2019-05-30T13:22:56.269Z,24.96
2019-05-30T13:23:55.572Z,24.94
2019-05-30T13:24:55.937Z,24.78
2019-05-30T13:25:55.578Z,24.56
2019-05-30T13:26:55.679Z,24.38
2019-05-30T13:27:55.818Z,24.16
2019-05-30T13:28:55.944Z,24.11
2019-05-30T13:29:55.945Z,23.85